createdAt,value
2023-01-05T00:01:40.383Z,8.62
2023-01-05T00:04:09.166Z,8.58
2023-01-05T00:06:39.557Z,8.57
2023-01-05T00:09:09.312Z,8.54
2023-01-05T00:11:56.528Z,8.56
2023-01-05T00:14:45.400Z,8.61
2023-01-05T00:17:33.827Z,8.60
2023-01-05T00:20:20.285Z,8.57
2023-01-05T00:22:50.449Z,8.52
2023-01-05T00:25:20.843Z,8.48
2023-01-05T00:27:51.877Z,8.45
2023-01-05T00:30:22.304Z,8.43
2023-01-05T00:32:51.044Z,8.43
2023-01-05T00:35:19.757Z,8.42
2023-01-05T00:37:49.899Z,8.43
2023-01-05T00:40:20.974Z,8.45
2023-01-05T00:42:50.670Z,8.47
2023-01-05T00:45:22.055Z,8.50
2023-01-05T00:47:51.814Z,8.53
2023-01-05T00:50:22.473Z,8.57
2023-01-05T00:52:51.312Z,8.61
2023-01-05T00:55:19.888Z,8.66
2023-01-05T00:57:48.247Z,8.69
2023-01-05T01:00:19.929Z,8.72
2023-01-05T01:02:52.247Z,8.74
2023-01-05T01:05:20.897Z,8.82
2023-01-05T01:07:49.886Z,8.80
2023-01-05T01:10:18.594Z,8.80
2023-01-05T01:12:47.316Z,8.81
2023-01-05T01:15:15.725Z,8.81
2023-01-05T01:17:46.474Z,8.82
2023-01-05T01:20:14.911Z,8.84
2023-01-05T01:22:43.250Z,8.89
2023-01-05T01:25:11.741Z,8.90
2023-01-05T01:27:40.090Z,8.87
2023-01-05T01:30:10.110Z,8.87
2023-01-05T01:32:38.522Z,8.87
2023-01-05T01:35:09.595Z,8.86
2023-01-05T01:37:38.090Z,8.86
2023-01-05T01:40:08.016Z,8.85
2023-01-05T01:42:36.617Z,8.85
2023-01-05T01:45:19.212Z,8.86
2023-01-05T01:47:50.707Z,8.86
2023-01-05T01:50:24.147Z,8.86
2023-01-05T01:52:56.056Z,8.87
2023-01-05T01:55:24.623Z,8.89
2023-01-05T01:57:53.818Z,8.91
2023-01-05T02:00:22.193Z,8.93
2023-01-05T02:02:54.484Z,8.94
2023-01-05T02:05:29.097Z,8.95
2023-01-05T02:07:57.551Z,8.96
2023-01-05T02:10:46.346Z,8.96
2023-01-05T02:13:31.635Z,8.94
2023-01-05T02:16:08.282Z,8.91
2023-01-05T02:18:54.652Z,8.89
2023-01-05T02:21:35.062Z,8.87
2023-01-05T02:24:34.706Z,8.87
2023-01-05T02:27:37.632Z,8.85
2023-01-05T02:30:33.575Z,8.86
2023-01-05T02:33:12.548Z,8.85
2023-01-05T02:35:50.116Z,8.84
2023-01-05T02:38:24.438Z,8.84
2023-01-05T02:40:58.371Z,8.83
2023-01-05T02:43:29.772Z,8.81
2023-01-05T02:45:58.140Z,8.81
2023-01-05T02:48:28.067Z,8.80
2023-01-05T02:51:01.526Z,8.80
2023-01-05T02:53:34.905Z,8.76
2023-01-05T02:56:10.569Z,8.72
2023-01-05T02:58:44.763Z,8.70
2023-01-05T03:01:18.712Z,8.69
2023-01-05T03:03:53.969Z,8.69
2023-01-05T03:06:26.987Z,8.69
2023-01-05T03:09:00.289Z,8.69
2023-01-05T03:11:52.866Z,8.64
2023-01-05T03:14:28.524Z,8.62
2023-01-05T03:16:58.081Z,8.61
2023-01-05T03:19:40.418Z,8.58
2023-01-05T03:22:32.299Z,8.57
2023-01-05T03:25:18.889Z,8.56
2023-01-05T03:28:06.992Z,8.54
2023-01-05T03:31:09.425Z,8.53
2023-01-05T03:34:02.377Z,8.51
2023-01-05T03:36:39.343Z,8.49
2023-01-05T03:39:10.830Z,8.51
2023-01-05T03:41:40.156Z,8.51
2023-01-05T03:44:09.434Z,8.53
2023-01-05T03:46:40.080Z,8.54
2023-01-05T03:49:08.456Z,8.55
2023-01-05T03:51:42.020Z,8.54
2023-01-05T03:54:10.842Z,8.56
2023-01-05T03:56:39.409Z,8.56
2023-01-05T03:59:07.766Z,8.57
2023-01-05T04:01:36.187Z,8.59
2023-01-05T04:04:04.803Z,8.58
2023-01-05T04:06:33.262Z,8.62
2023-01-05T04:09:03.333Z,8.62
2023-01-05T04:11:31.999Z,8.63
2023-01-05T04:14:02.387Z,8.65
2023-01-05T04:16:30.780Z,8.65
2023-01-05T04:18:59.108Z,8.63
2023-01-05T04:21:27.443Z,8.62
2023-01-05T04:23:56.024Z,8.62
2023-01-05T04:26:25.711Z,8.61
2023-01-05T04:28:54.086Z,8.61
2023-01-05T04:31:22.506Z,8.63
2023-01-05T04:33:50.828Z,8.65
2023-01-05T04:36:19.219Z,8.66
2023-01-05T04:38:47.814Z,8.68
2023-01-05T04:41:16.253Z,8.69
2023-01-05T04:43:46.006Z,8.67
2023-01-05T04:46:14.440Z,8.67
2023-01-05T04:48:42.998Z,8.65
2023-01-05T04:51:14.159Z,8.63
2023-01-05T04:53:42.600Z,8.60
2023-01-05T04:56:11.197Z,8.61
2023-01-05T04:58:39.611Z,8.62
2023-01-05T05:01:09.521Z,8.62
2023-01-05T05:03:38.017Z,8.63
2023-01-05T05:06:06.989Z,8.61
2023-01-05T05:08:35.420Z,8.59
2023-01-05T05:11:03.764Z,8.59
2023-01-05T05:13:32.293Z,8.65
2023-01-05T05:16:00.933Z,8.70
2023-01-05T05:18:30.669Z,8.71
2023-01-05T05:20:59.086Z,8.73
2023-01-05T05:23:27.697Z,8.73
2023-01-05T05:25:56.025Z,8.82
2023-01-05T05:28:28.344Z,8.97
2023-01-05T05:30:57.585Z,9.09
2023-01-05T05:33:26.340Z,9.20
2023-01-05T05:35:56.087Z,9.38
2023-01-05T05:38:24.388Z,9.75
2023-01-05T05:40:52.941Z,10.14
2023-01-05T05:43:21.285Z,10.50
2023-01-05T05:45:50.809Z,10.75
2023-01-05T05:48:19.811Z,10.94
2023-01-05T05:50:48.458Z,11.11
2023-01-05T05:53:18.189Z,11.30
2023-01-05T05:55:49.553Z,11.40
2023-01-05T05:58:18.075Z,11.45
2023-01-05T06:00:46.788Z,11.51
2023-01-05T06:03:15.285Z,11.59
2023-01-05T06:05:43.755Z,11.64
2023-01-05T06:08:12.096Z,11.72
2023-01-05T06:10:41.886Z,11.76
2023-01-05T06:13:11.625Z,11.79
2023-01-05T06:15:39.967Z,11.84
2023-01-05T06:18:08.336Z,11.85
2023-01-05T06:20:36.744Z,11.86
2023-01-05T06:23:05.393Z,11.86
2023-01-05T06:25:34.301Z,11.85
2023-01-05T06:28:04.304Z,11.88
2023-01-05T06:30:32.643Z,11.87
2023-01-05T06:33:01.193Z,11.86
2023-01-05T06:35:29.516Z,11.83
2023-01-05T06:37:57.884Z,11.80
2023-01-05T06:40:26.273Z,11.77
2023-01-05T06:42:54.639Z,11.78
2023-01-05T06:45:24.396Z,11.76
2023-01-05T06:47:52.848Z,11.78
2023-01-05T06:50:21.211Z,11.78
2023-01-05T06:52:49.576Z,11.79
2023-01-05T06:55:18.136Z,11.76
2023-01-05T06:57:46.662Z,11.78
2023-01-05T07:00:16.734Z,11.76
2023-01-05T07:02:46.479Z,11.69
2023-01-05T07:05:14.890Z,11.63
2023-01-05T07:07:43.199Z,11.63
2023-01-05T07:10:11.994Z,11.65
2023-01-05T07:12:40.960Z,11.70
2023-01-05T07:15:10.890Z,11.69
2023-01-05T07:17:39.222Z,11.66
2023-01-05T07:20:09.965Z,11.67
2023-01-05T07:22:38.313Z,11.67
2023-01-05T07:25:07.439Z,11.70
2023-01-05T07:27:37.496Z,11.76
2023-01-05T07:30:06.913Z,11.84
2023-01-05T07:32:35.335Z,11.83
2023-01-05T07:35:03.755Z,11.83
2023-01-05T07:37:33.815Z,11.84
2023-01-05T07:40:02.125Z,11.89
2023-01-05T07:42:30.859Z,11.93
2023-01-05T07:44:59.999Z,11.93
2023-01-05T07:47:28.447Z,11.96
2023-01-05T07:49:56.896Z,11.97
2023-01-05T07:52:25.474Z,12.01
2023-01-05T07:54:55.165Z,12.01
2023-01-05T07:57:23.515Z,12.01
2023-01-05T07:59:52.048Z,12.02
2023-01-05T08:02:21.220Z,12.07
2023-01-05T08:04:49.751Z,12.10
2023-01-05T08:07:18.159Z,12.13
2023-01-05T08:10:04.334Z,12.18
2023-01-05T08:12:54.030Z,12.21
2023-01-05T08:15:22.403Z,12.19
2023-01-05T08:17:50.751Z,12.19
2023-01-05T08:20:19.274Z,12.20
2023-01-05T08:22:51.680Z,12.19
2023-01-05T08:25:20.423Z,12.18
2023-01-05T08:27:50.351Z,12.17
2023-01-05T08:30:18.826Z,12.19
2023-01-05T08:32:47.213Z,12.21
2023-01-05T08:35:15.683Z,12.20
2023-01-05T08:37:45.900Z,12.20
2023-01-05T08:40:14.430Z,12.18
2023-01-05T08:42:42.906Z,12.16
2023-01-05T08:45:12.893Z,12.16
2023-01-05T08:47:41.506Z,12.15
2023-01-05T08:50:10.672Z,12.12
2023-01-05T08:52:40.067Z,12.10
2023-01-05T08:55:09.020Z,12.10
2023-01-05T08:57:37.453Z,12.08
2023-01-05T09:00:07.097Z,12.04
2023-01-05T09:02:36.988Z,12.02
2023-01-05T09:05:06.364Z,12.02
2023-01-05T09:07:37.866Z,12.01
2023-01-05T09:10:07.639Z,12.01
2023-01-05T09:12:36.526Z,12.01
2023-01-05T09:15:07.741Z,12.04
2023-01-05T09:17:40.411Z,12.05
2023-01-05T09:20:09.844Z,12.07
2023-01-05T09:22:38.321Z,12.10
2023-01-05T09:25:07.382Z,12.13
2023-01-05T09:27:36.798Z,12.17
2023-01-05T09:30:05.722Z,12.18
2023-01-05T09:32:34.255Z,12.21
2023-01-05T09:35:04.121Z,12.25
2023-01-05T09:37:32.521Z,12.28
2023-01-05T09:40:00.900Z,12.31
2023-01-05T09:42:34.133Z,12.33
2023-01-05T09:45:06.042Z,12.33
2023-01-05T09:47:41.102Z,12.35
2023-01-05T09:50:20.349Z,12.38
2023-01-05T09:52:49.543Z,12.39
2023-01-05T09:55:20.323Z,12.40
2023-01-05T09:57:54.436Z,12.43
2023-01-05T10:00:25.099Z,12.43
2023-01-05T10:03:10.938Z,12.43
2023-01-05T10:05:46.082Z,12.41
2023-01-05T10:08:21.858Z,12.41
2023-01-05T10:11:11.509Z,12.41
2023-01-05T10:13:44.086Z,12.43
2023-01-05T10:16:17.668Z,12.45
2023-01-05T10:18:47.125Z,12.46
2023-01-05T10:21:27.062Z,12.47
2023-01-05T10:24:08.992Z,12.46
2023-01-05T10:27:23.089Z,12.48
2023-01-05T10:29:42.207Z,12.48
2023-01-05T10:32:24.095Z,12.50
2023-01-05T10:34:57.711Z,12.51
2023-01-05T10:37:58.787Z,12.51
2023-01-05T10:40:36.869Z,12.52
2023-01-05T10:43:25.516Z,12.54
2023-01-05T10:46:28.729Z,12.57
2023-01-05T10:48:42.556Z,12.60
2023-01-05T10:51:11.192Z,12.61
2023-01-05T10:53:44.067Z,12.65
2023-01-05T10:56:16.121Z,12.66
2023-01-05T10:58:46.811Z,12.68
2023-01-05T11:01:23.973Z,12.69
2023-01-05T11:04:25.644Z,12.69
2023-01-05T11:06:45.915Z,12.71
2023-01-05T11:09:22.503Z,12.72
2023-01-05T11:11:55.793Z,12.74
2023-01-05T11:14:25.009Z,12.73
2023-01-05T11:16:56.983Z,12.67
2023-01-05T11:19:31.311Z,12.63
2023-01-05T11:22:02.105Z,12.58
2023-01-05T11:24:35.122Z,12.52
2023-01-05T11:27:05.686Z,12.47
2023-01-05T11:29:34.129Z,12.44
2023-01-05T11:32:04.795Z,12.37
2023-01-05T11:34:42.227Z,12.32
2023-01-05T11:37:24.393Z,12.28
2023-01-05T11:39:57.132Z,12.28
2023-01-05T11:42:34.120Z,12.28
2023-01-05T11:45:07.371Z,12.25
2023-01-05T11:47:43.861Z,12.21
2023-01-05T11:50:22.476Z,12.19
2023-01-05T11:52:53.973Z,12.17
2023-01-05T11:55:38.414Z,12.16
2023-01-05T11:58:25.759Z,12.16
2023-01-05T12:01:29.727Z,12.15
2023-01-05T12:04:05.188Z,12.16
2023-01-05T12:06:53.111Z,12.20
2023-01-05T12:09:32.639Z,12.25
2023-01-05T12:12:24.783Z,12.29
2023-01-05T12:15:08.639Z,12.33
2023-01-05T12:17:46.527Z,12.37
2023-01-05T12:20:33.904Z,12.41
2023-01-05T12:23:24.303Z,12.47
2023-01-05T12:26:04.368Z,12.52
2023-01-05T12:30:15.854Z,12.56
2023-01-05T12:35:49.607Z,12.63
2023-01-05T12:38:36.606Z,12.64
2023-01-05T12:41:55.086Z,12.63
2023-01-05T12:44:51.726Z,12.55
2023-01-05T12:47:34.786Z,12.46
2023-01-05T12:50:15.800Z,12.32
2023-01-05T12:52:49.364Z,12.17
2023-01-05T12:55:22.462Z,11.99
2023-01-05T12:57:57.460Z,11.75
2023-01-05T13:00:32.302Z,11.59
2023-01-05T13:03:03.371Z,11.45
2023-01-05T13:05:35.652Z,11.32
2023-01-05T13:08:10.176Z,11.26
2023-01-05T13:10:46.448Z,11.22
2023-01-05T13:13:18.116Z,11.19
2023-01-05T13:15:56.855Z,11.18
2023-01-05T13:18:27.966Z,11.20
2023-01-05T13:20:58.633Z,11.19
2023-01-05T13:23:31.970Z,11.20
2023-01-05T13:26:05.236Z,11.21
2023-01-05T13:28:34.938Z,11.18
2023-01-05T13:31:32.307Z,11.18
2023-01-05T13:34:23.485Z,11.19
2023-01-05T13:37:24.046Z,11.22
2023-01-05T13:40:22.807Z,11.23
2023-01-05T13:43:09.203Z,11.28
2023-01-05T13:46:08.079Z,11.32
2023-01-05T13:49:04.132Z,11.33
2023-01-05T13:51:47.780Z,11.36
2023-01-05T13:54:20.580Z,11.37
2023-01-05T13:56:51.158Z,11.39
2023-01-05T13:59:35.802Z,11.38
2023-01-05T14:02:28.763Z,11.39
2023-01-05T14:04:59.596Z,11.39
2023-01-05T14:07:28.991Z,11.38
2023-01-05T14:09:58.626Z,11.38
2023-01-05T14:12:48.670Z,11.38
2023-01-05T14:15:41.722Z,11.38
2023-01-05T14:18:10.910Z,11.38
2023-01-05T14:20:44.775Z,11.38
2023-01-05T14:23:46.358Z,11.40
2023-01-05T14:26:14.748Z,11.41
2023-01-05T14:28:46.931Z,11.41
2023-01-05T14:31:49.248Z,11.43
2023-01-05T14:34:21.467Z,11.44
2023-01-05T14:37:03.246Z,11.45
2023-01-05T14:39:37.724Z,11.45
2023-01-05T14:42:09.335Z,11.46
2023-01-05T14:44:44.033Z,11.48
2023-01-05T14:47:12.817Z,11.47
2023-01-05T14:49:44.662Z,11.48
2023-01-05T14:52:20.113Z,11.47
2023-01-05T14:55:26.876Z,11.48
2023-01-05T14:58:07.495Z,11.47
2023-01-05T15:00:41.591Z,11.46
2023-01-05T15:03:19.810Z,11.47
2023-01-05T15:05:55.568Z,11.47
2023-01-05T15:08:49.088Z,11.47
2023-01-05T15:11:44.243Z,11.47
2023-01-05T15:14:46.146Z,11.46
2023-01-05T15:17:50.589Z,11.45
2023-01-05T15:21:09.533Z,11.46
2023-01-05T15:24:00.977Z,11.45
2023-01-05T15:26:45.066Z,11.43
2023-01-05T15:29:49.224Z,11.44
2023-01-05T15:32:21.091Z,11.44
2023-01-05T15:34:54.885Z,11.44
2023-01-05T15:37:33.120Z,11.43
2023-01-05T15:40:05.012Z,11.43
2023-01-05T15:42:39.890Z,11.42
2023-01-05T15:45:16.204Z,11.42
2023-01-05T15:47:45.481Z,11.41
2023-01-05T15:50:20.483Z,11.41
2023-01-05T15:52:55.076Z,11.40
2023-01-05T15:55:26.734Z,11.41
2023-01-05T15:57:57.909Z,11.42
2023-01-05T16:00:30.489Z,11.42
2023-01-05T16:02:59.746Z,11.42
2023-01-05T16:05:29.999Z,11.41
2023-01-05T16:07:59.916Z,11.41
2023-01-05T16:10:37.766Z,11.41
2023-01-05T16:13:13.313Z,11.40
2023-01-05T16:15:43.441Z,11.41
2023-01-05T16:18:17.427Z,11.42
2023-01-05T16:20:50.308Z,11.42
2023-01-05T16:23:24.155Z,11.43
2023-01-05T16:25:57.774Z,11.44
2023-01-05T16:28:27.171Z,11.46
2023-01-05T16:30:56.374Z,11.46
2023-01-05T16:33:34.718Z,11.47
2023-01-05T16:36:20.145Z,11.49
2023-01-05T16:38:49.611Z,11.48
2023-01-05T16:41:24.011Z,11.48
2023-01-05T16:43:56.074Z,11.48
2023-01-05T16:46:45.135Z,11.48
2023-01-05T16:49:33.064Z,11.47
2023-01-05T16:52:02.604Z,11.48
2023-01-05T16:54:39.252Z,11.47
2023-01-05T16:57:38.393Z,11.46
2023-01-05T17:00:37.696Z,11.44
2023-01-05T17:03:28.621Z,11.42
2023-01-05T17:06:00.354Z,11.41
2023-01-05T17:08:31.893Z,11.41
2023-01-05T17:11:01.655Z,11.40
2023-01-05T17:13:38.133Z,11.40
2023-01-05T17:16:11.972Z,11.38
2023-01-05T17:18:40.990Z,11.35
2023-01-05T17:21:13.650Z,11.31
2023-01-05T17:23:46.941Z,11.30
2023-01-05T17:26:19.893Z,11.27
2023-01-05T17:28:48.216Z,11.24
2023-01-05T17:31:17.907Z,11.21
2023-01-05T17:33:46.585Z,11.19
2023-01-05T17:38:45.915Z,11.15
2023-01-05T17:41:16.094Z,11.11
2023-01-05T17:43:45.882Z,11.05
2023-01-05T17:46:19.411Z,10.97
2023-01-05T17:48:48.313Z,10.95
2023-01-05T17:51:16.865Z,10.95
2023-01-05T17:53:52.071Z,10.91
2023-01-05T17:56:20.980Z,10.90
2023-01-05T17:58:49.937Z,10.90
2023-01-05T18:01:20.233Z,10.88
2023-01-05T18:03:49.034Z,10.89
2023-01-05T18:06:17.705Z,10.88
2023-01-05T18:08:46.372Z,10.83
2023-01-05T18:11:16.416Z,10.82
2023-01-05T18:13:46.219Z,10.82
2023-01-05T18:16:16.335Z,10.82
2023-01-05T18:18:46.165Z,10.80
2023-01-05T18:21:14.901Z,10.78
2023-01-05T18:23:43.425Z,10.79
2023-01-05T18:26:11.938Z,10.79
2023-01-05T18:28:40.430Z,10.80
2023-01-05T18:31:13.195Z,10.81
2023-01-05T18:33:42.031Z,10.81
2023-01-05T18:36:14.588Z,10.81
2023-01-05T18:38:43.724Z,10.81
2023-01-05T18:41:13.422Z,10.82
2023-01-05T18:43:41.893Z,10.81
2023-01-05T18:46:10.357Z,10.83
2023-01-05T18:48:39.896Z,10.83
2023-01-05T18:51:09.303Z,10.84
2023-01-05T18:53:39.615Z,10.83
2023-01-05T18:56:09.463Z,10.80
2023-01-05T18:58:38.094Z,10.78
2023-01-05T19:01:09.839Z,10.76
2023-01-05T19:03:38.840Z,10.72
2023-01-05T19:06:08.506Z,10.70
2023-01-05T19:08:37.139Z,10.69
2023-01-05T19:11:14.615Z,10.68
2023-01-05T19:13:45.155Z,10.64
2023-01-05T19:16:15.557Z,10.61
2023-01-05T19:18:45.988Z,10.57
2023-01-05T19:21:14.736Z,10.57
2023-01-05T19:23:43.182Z,10.52
2023-01-05T19:26:13.175Z,10.49
2023-01-05T19:28:41.558Z,10.48
2023-01-05T19:31:11.739Z,10.48
2023-01-05T19:33:41.503Z,10.49
2023-01-05T19:36:11.838Z,10.49
2023-01-05T19:38:41.116Z,10.48
2023-01-05T19:41:13.259Z,10.47
2023-01-05T19:43:42.633Z,10.44
2023-01-05T19:46:14.027Z,10.41
2023-01-05T19:48:43.555Z,10.42
2023-01-05T19:51:14.796Z,10.41
2023-01-05T19:53:44.791Z,10.40
2023-01-05T19:56:16.059Z,10.40
2023-01-05T19:58:44.778Z,10.39
2023-01-05T20:01:15.026Z,10.38
2023-01-05T20:03:44.517Z,10.38
2023-01-05T20:06:15.835Z,10.36
2023-01-05T20:08:45.464Z,10.34
2023-01-05T20:11:15.222Z,10.30
2023-01-05T20:13:43.631Z,10.28
2023-01-05T20:16:13.654Z,10.26
2023-01-05T20:18:42.104Z,10.27
2023-01-05T20:21:10.744Z,10.25
2023-01-05T20:23:40.873Z,10.27
2023-01-05T20:26:11.544Z,10.25
2023-01-05T20:28:41.971Z,10.24
2023-01-05T20:31:17.805Z,10.21
2023-01-05T20:33:46.344Z,10.20
2023-01-05T20:36:15.135Z,10.19
2023-01-05T20:38:44.139Z,10.19
2023-01-05T20:41:17.404Z,10.16
2023-01-05T20:43:48.347Z,10.11
2023-01-05T20:46:18.648Z,10.06
2023-01-05T20:48:49.225Z,10.02
2023-01-05T20:51:18.036Z,10.01
2023-01-05T20:53:46.416Z,10.00
2023-01-05T20:56:19.073Z,9.96
2023-01-05T20:58:50.952Z,9.95
2023-01-05T21:01:19.948Z,9.96
2023-01-05T21:03:48.752Z,9.97
2023-01-05T21:06:20.001Z,9.97
2023-01-05T21:08:49.749Z,9.97
2023-01-05T21:11:19.728Z,9.99
2023-01-05T21:13:51.827Z,10.02
2023-01-05T21:16:23.035Z,10.02
2023-01-05T21:18:51.773Z,10.04
2023-01-05T21:21:21.904Z,10.05
2023-01-05T21:23:51.911Z,10.04
2023-01-05T21:26:21.481Z,10.06
2023-01-05T21:28:53.416Z,10.08
2023-01-05T21:31:25.044Z,10.10
2023-01-05T21:33:54.139Z,10.12
2023-01-05T21:36:25.495Z,10.14
2023-01-05T21:39:00.868Z,10.17
2023-01-05T21:41:49.140Z,10.23
2023-01-05T21:44:20.137Z,10.29
2023-01-05T21:46:49.905Z,10.35
2023-01-05T21:49:18.982Z,10.39
2023-01-05T21:52:05.334Z,10.42
2023-01-05T21:54:51.418Z,10.47
2023-01-05T21:57:20.009Z,10.49
2023-01-05T21:59:49.730Z,10.49
2023-01-05T22:02:18.153Z,10.51
2023-01-05T22:04:46.782Z,10.54
2023-01-05T22:07:15.134Z,10.53
2023-01-05T22:09:43.731Z,10.52
2023-01-05T22:12:12.250Z,10.50
2023-01-05T22:14:40.721Z,10.48
2023-01-05T22:17:10.612Z,10.50
2023-01-05T22:19:39.026Z,10.49
2023-01-05T22:22:07.370Z,10.50
2023-01-05T22:24:35.751Z,10.53
2023-01-05T22:27:04.156Z,10.52
2023-01-05T22:29:32.577Z,10.53
2023-01-05T22:32:03.793Z,10.55
2023-01-05T22:34:33.593Z,10.59
2023-01-05T22:37:02.000Z,10.60
2023-01-05T22:39:30.421Z,10.63
2023-01-05T22:41:59.001Z,10.66
2023-01-05T22:44:27.340Z,10.69
2023-01-05T22:46:55.682Z,10.68
2023-01-05T22:49:24.047Z,10.70
2023-01-05T22:51:53.724Z,10.69
2023-01-05T22:54:22.137Z,10.70
2023-01-05T22:56:50.496Z,10.72
2023-01-05T22:59:18.840Z,10.74
2023-01-05T23:01:47.716Z,10.76
2023-01-05T23:04:16.767Z,10.76
2023-01-05T23:06:45.273Z,10.77
2023-01-05T23:09:16.944Z,10.77
2023-01-05T23:11:46.818Z,10.75
2023-01-05T23:14:18.454Z,10.74
2023-01-05T23:16:47.805Z,10.72
2023-01-05T23:19:16.940Z,10.69
2023-01-05T23:21:45.768Z,10.65
2023-01-05T23:24:15.474Z,10.63
2023-01-05T23:26:43.847Z,10.61
2023-01-05T23:29:13.381Z,10.60
2023-01-05T23:31:43.736Z,10.59
2023-01-05T23:34:12.136Z,10.56
2023-01-05T23:36:40.424Z,10.54
2023-01-05T23:39:08.889Z,10.51
2023-01-05T23:41:38.695Z,10.49
2023-01-05T23:44:08.070Z,10.51
2023-01-05T23:46:36.434Z,10.52
2023-01-05T23:49:05.031Z,10.49
2023-01-05T23:51:33.461Z,10.47
2023-01-05T23:54:01.806Z,10.46
2023-01-05T23:56:31.786Z,10.45
2023-01-05T23:59:05.701Z,10.45
